Time;durP1;ratioP1;P1;durP2;ratioP2;P2;SDS_P1;SDS_P2;PMS_P1;PMS_P2;Temp;Humidity;BMP_temperature;BMP_pressure;BME280_temperature;BME280_humidity;BME280_pressure;Samples;Min_cycle;Max_cycle;Signal;HPM_P1;HPM_P2
2024/01/07 00:01:48;;;;;;;6.50;2.70;;;;;;;-3.73;100.00;100265.97;105153;1260;72777;-55
2024/01/07 00:04:16;;;;;;;8.00;2.70;;;;;;;-3.70;100.00;100269.89;105103;1265;60551;-55
2024/01/07 00:06:43;;;;;;;6.30;2.90;;;;;;;-3.64;100.00;100273.14;105934;1254;60523;-56
2024/01/07 00:09:12;;;;;;;10.10;4.80;;;;;;;-3.63;100.00;100282.11;104935;1254;74417;-56
2024/01/07 00:11:40;;;;;;;8.40;3.10;;;;;;;-3.69;100.00;100281.33;105784;1253;65800;-55
2024/01/07 00:14:07;;;;;;;4.60;2.80;;;;;;;-3.74;100.00;100281.74;105473;1254;73095;-56
2024/01/07 00:16:34;;;;;;;4.60;2.30;;;;;;;-3.74;100.00;100283.67;104986;1254;60470;-56
2024/01/07 00:19:02;;;;;;;4.00;1.90;;;;;;;-3.72;100.00;100283.70;105050;1258;60614;-56
2024/01/07 00:21:31;;;;;;;2.20;1.80;;;;;;;-3.72;100.00;100292.30;105801;1255;72937;-55
2024/01/07 00:23:58;;;;;;;3.70;2.10;;;;;;;-3.67;100.00;100299.58;105276;1254;65403;-55
2024/01/07 00:26:25;;;;;;;2.90;1.60;;;;;;;-3.60;100.00;100301.63;105048;1259;72705;-56
2024/01/07 00:28:53;;;;;;;2.90;1.50;;;;;;;-3.55;100.00;100300.33;104796;1257;60476;-56
2024/01/07 00:31:20;;;;;;;2.60;1.50;;;;;;;-3.51;100.00;100302.14;104716;1254;61133;-56
2024/01/07 00:33:47;;;;;;;4.40;1.50;;;;;;;-3.50;100.00;100300.06;105137;1254;73275;-56
2024/01/07 00:36:15;;;;;;;2.40;1.50;;;;;;;-3.52;100.00;100299.85;104803;1260;67369;-55
2024/01/07 00:38:43;;;;;;;2.10;1.40;;;;;;;-3.54;100.00;100293.48;104854;1254;71461;-55
2024/01/07 00:41:12;;;;;;;5.20;2.20;;;;;;;-3.60;100.00;100293.38;105152;1257;60557;-56
2024/01/07 00:43:40;;;;;;;2.70;1.20;;;;;;;-3.66;100.00;100293.82;104840;1257;60345;-56
2024/01/07 00:46:08;;;;;;;3.50;1.20;;;;;;;-3.66;100.00;100294.70;105006;1254;73831;-56
2024/01/07 00:48:35;;;;;;;2.30;0.90;;;;;;;-3.61;100.00;100297.41;104811;1253;65445;-55
2024/01/07 00:51:03;;;;;;;3.40;1.20;;;;;;;-3.55;100.00;100302.42;105134;1257;73111;-55
2024/01/07 00:53:31;;;;;;;1.90;1.00;;;;;;;-3.53;100.00;100306.33;105305;1254;60477;-55
2024/01/07 00:55:58;;;;;;;2.50;1.40;;;;;;;-3.55;100.00;100304.35;105013;1258;60616;-56
2024/01/07 00:58:25;;;;;;;3.30;1.40;;;;;;;-3.58;100.00;100306.23;104966;1254;72753;-54
2024/01/07 01:00:53;;;;;;;2.10;1.10;;;;;;;-3.65;100.00;100303.83;105060;1257;66191;-55
2024/01/07 01:03:21;;;;;;;2.20;1.10;;;;;;;-3.70;100.00;100302.34;104920;1255;71715;-56
2024/01/07 01:05:50;;;;;;;2.10;1.30;;;;;;;-3.74;100.00;100298.58;104777;1253;60790;-56
2024/01/07 01:08:17;;;;;;;2.30;0.90;;;;;;;-3.78;100.00;100294.64;104965;1254;60475;-57
2024/01/07 01:10:45;;;;;;;4.10;1.40;;;;;;;-3.78;100.00;100292.73;104957;1254;73104;-56
2024/01/07 01:13:12;;;;;;;2.40;1.00;;;;;;;-3.78;100.00;100291.31;104864;1257;66121;-56
2024/01/07 01:15:39;;;;;;;2.30;1.20;;;;;;;-3.78;100.00;100294.65;104753;1254;73186;-56
2024/01/07 01:18:07;;;;;;;4.00;1.40;;;;;;;-3.79;100.00;100303.39;104848;1255;60504;-57
2024/01/07 01:20:34;;;;;;;3.00;1.20;;;;;;;-3.78;100.00;100300.96;104797;1254;60952;-56
2024/01/07 01:23:02;;;;;;;1.80;0.90;;;;;;;-3.77;100.00;100295.02;104839;1256;75775;-56
2024/01/07 01:25:30;;;;;;;1.80;1.00;;;;;;;-3.80;100.00;100297.60;104914;1257;66676;-56
2024/01/07 01:27:57;;;;;;;3.30;1.10;;;;;;;-3.87;100.00;100295.90;104829;1260;72704;-56
2024/01/07 01:30:25;;;;;;;1.90;1.00;;;;;;;-3.91;100.00;100296.35;105037;1251;60530;-56
2024/01/07 01:32:52;;;;;;;2.40;1.00;;;;;;;-3.95;100.00;100293.65;105314;1254;60512;-55
2024/01/07 01:35:20;;;;;;;3.00;1.10;;;;;;;-3.98;100.00;100292.02;104820;1254;73931;-56
2024/01/07 01:37:47;;;;;;;3.30;1.10;;;;;;;-3.98;100.00;100294.82;104973;1254;67063;-55
2024/01/07 01:40:16;;;;;;;2.40;0.80;;;;;;;-3.95;100.00;100298.03;105037;1256;73262;-55
2024/01/07 01:42:44;;;;;;;1.50;0.90;;;;;;;-3.88;100.00;100300.61;105910;1257;60434;-56
2024/01/07 01:45:11;;;;;;;2.20;0.90;;;;;;;-3.83;100.00;100311.21;104672;1259;60431;-56
2024/01/07 01:47:40;;;;;;;3.50;1.00;;;;;;;-3.80;100.00;100310.58;105577;1254;73217;-56
2024/01/07 01:50:08;;;;;;;2.10;1.10;;;;;;;-3.81;100.00;100314.06;104729;1254;66341;-57
2024/01/07 01:52:36;;;;;;;2.90;1.00;;;;;;;-3.84;100.00;100310.52;104509;1261;71133;-53
2024/01/07 01:55:04;;;;;;;2.50;1.00;;;;;;;-3.86;100.00;100309.95;104874;1252;60455;-56
2024/01/07 01:57:37;;;;;;;2.40;0.90;;;;;;;-3.89;100.00;100312.67;105744;1252;60754;-56
2024/01/07 02:00:06;;;;;;;2.70;1.20;;;;;;;-3.93;100.00;100317.02;104760;1253;72631;-55
2024/01/07 02:02:36;;;;;;;6.90;1.20;;;;;;;-3.97;100.00;100315.35;104551;1260;68411;-57
2024/01/07 02:05:04;;;;;;;2.10;0.90;;;;;;;-4.01;100.00;100314.92;104910;1257;72787;-56
2024/01/07 02:07:31;;;;;;;2.20;0.90;;;;;;;-4.04;100.00;100310.83;104776;1252;61666;-56
2024/01/07 02:09:59;;;;;;;2.50;1.10;;;;;;;-4.00;100.00;100310.21;104780;1257;60536;-57
2024/01/07 02:12:27;;;;;;;1.80;1.00;;;;;;;-3.94;100.00;100310.34;106157;1260;75579;-57
2024/01/07 02:14:54;;;;;;;3.90;1.10;;;;;;;-3.88;100.00;100313.60;105673;1254;65615;-54
2024/01/07 02:17:22;;;;;;;3.70;1.20;;;;;;;-3.83;100.00;100312.63;104733;1254;73294;-55
2024/01/07 02:19:49;;;;;;;3.20;1.30;;;;;;;-3.80;100.00;100308.99;104756;1253;60450;-54
2024/01/07 02:22:18;;;;;;;2.70;1.30;;;;;;;-3.78;100.00;100303.76;104880;1253;60523;-54
2024/01/07 02:24:46;;;;;;;2.40;1.10;;;;;;;-3.81;100.00;100310.55;104783;1254;74773;-55
2024/01/07 02:27:13;;;;;;;2.70;1.00;;;;;;;-3.83;100.00;100311.05;108984;1253;64668;-55
2024/01/07 02:29:40;;;;;;;2.30;1.00;;;;;;;-3.86;100.00;100306.44;105728;1255;70712;-55
2024/01/07 02:32:08;;;;;;;3.20;1.00;;;;;;;-3.91;100.00;100310.04;104781;1253;60451;-56
2024/01/07 02:34:35;;;;;;;3.20;1.30;;;;;;;-3.96;100.00;100302.03;104851;1257;60290;-55
2024/01/07 02:37:03;;;;;;;3.20;1.30;;;;;;;-4.00;100.00;100299.16;104677;1257;75472;-55
2024/01/07 02:39:30;;;;;;;2.10;0.90;;;;;;;-4.02;100.00;100298.08;104587;1254;66821;-55
2024/01/07 02:41:58;;;;;;;3.00;1.00;;;;;;;-4.05;100.00;100296.07;104858;1252;72895;-55
2024/01/07 02:44:25;;;;;;;4.60;1.20;;;;;;;-4.03;100.00;100295.61;108865;1254;59636;-56
2024/01/07 02:46:52;;;;;;;2.40;1.20;;;;;;;-4.04;100.00;100299.44;109135;1252;58783;-56
2024/01/07 02:49:19;;;;;;;2.90;1.00;;;;;;;-4.09;100.00;100296.89;109011;1252;71758;-56
2024/01/07 02:51:49;;;;;;;2.00;1.20;;;;;;;-4.09;100.00;100298.13;109038;1253;66994;-55
2024/01/07 02:54:16;;;;;;;2.40;1.20;;;;;;;-4.11;100.00;100298.95;106699;1254;72078;-55
2024/01/07 02:56:44;;;;;;;1.90;1.10;;;;;;;-4.18;100.00;100296.01;104758;1258;60873;-55
2024/01/07 02:59:11;;;;;;;3.10;1.40;;;;;;;-4.28;100.00;100295.30;104781;1254;60492;-56
2024/01/07 03:01:42;;;;;;;7.30;2.30;;;;;;;-4.33;100.00;100300.96;104815;1256;74488;-56
2024/01/07 03:04:10;;;;;;;2.10;1.40;;;;;;;-4.33;100.00;100296.93;104853;1260;65925;-57
2024/01/07 03:06:37;;;;;;;6.40;1.70;;;;;;;-4.30;100.00;100301.56;104835;1254;71442;-56
2024/01/07 03:09:05;;;;;;;4.90;1.20;;;;;;;-4.28;100.00;100301.27;104937;1254;60473;-56
2024/01/07 03:11:32;;;;;;;6.30;1.30;;;;;;;-4.25;100.00;100301.30;104678;1255;60790;-57
2024/01/07 03:13:59;;;;;;;5.10;1.30;;;;;;;-4.21;100.00;100306.64;104835;1254;74601;-56
2024/01/07 03:16:27;;;;;;;6.20;2.10;;;;;;;-4.20;100.00;100310.36;104760;1255;65496;-57
2024/01/07 03:18:54;;;;;;;4.90;1.30;;;;;;;-4.21;100.00;100313.49;104731;1257;72211;-57
2024/01/07 03:21:22;;;;;;;2.40;1.10;;;;;;;-4.29;100.00;100320.52;104813;1253;61240;-57
2024/01/07 03:23:50;;;;;;;2.80;1.30;;;;;;;-4.36;100.00;100323.34;105274;1253;61059;-57
2024/01/07 03:26:20;;;;;;;3.30;1.90;;;;;;;-4.40;100.00;100325.17;104964;1253;74464;-56
2024/01/07 03:28:47;;;;;;;2.70;1.30;;;;;;;-4.41;100.00;100323.75;105132;1252;67787;-56
2024/01/07 03:31:15;;;;;;;1.90;1.10;;;;;;;-4.42;100.00;100324.96;105028;1257;71433;-56
2024/01/07 03:33:43;;;;;;;3.30;1.50;;;;;;;-4.46;100.00;100321.74;105121;1253;60456;-57
2024/01/07 03:36:12;;;;;;;3.00;1.80;;;;;;;-4.53;100.00;100324.03;105627;1254;60547;-56
2024/01/07 03:38:40;;;;;;;1.80;1.20;;;;;;;-4.61;100.00;100321.77;104830;1256;74145;-57
2024/01/07 03:41:07;;;;;;;2.70;1.80;;;;;;;-4.65;100.00;100329.20;105046;1256;67271;-56
2024/01/07 03:43:34;;;;;;;2.00;1.50;;;;;;;-4.67;100.00;100327.05;105157;1257;70567;-57
2024/01/07 03:46:01;;;;;;;2.70;1.40;;;;;;;-4.66;100.00;100327.59;105091;1255;60506;-56
2024/01/07 03:48:29;;;;;;;4.90;1.60;;;;;;;-4.62;100.00;100328.75;105025;1260;60521;-56
2024/01/07 03:50:57;;;;;;;2.70;1.50;;;;;;;-4.59;100.00;100334.60;106979;1254;72693;-56
2024/01/07 03:53:24;;;;;;;5.00;1.90;;;;;;;-4.62;100.00;100331.55;105309;1253;64775;-57
2024/01/07 03:55:52;;;;;;;2.50;1.30;;;;;;;-4.74;100.00;100332.34;105043;1257;72660;-57
2024/01/07 03:58:19;;;;;;;2.90;1.70;;;;;;;-4.80;100.00;100327.30;105029;1254;60679;-56
2024/01/07 04:00:46;;;;;;;3.50;1.60;;;;;;;-4.87;100.00;100326.80;104870;1252;60484;-54
2024/01/07 04:03:14;;;;;;;2.80;1.30;;;;;;;-4.88;100.00;100331.14;105131;1255;71712;-56
2024/01/07 04:05:41;;;;;;;3.30;1.30;;;;;;;-4.89;100.00;100330.25;104852;1257;66158;-56
2024/01/07 04:08:09;;;;;;;3.00;1.50;;;;;;;-4.93;100.00;100329.98;104945;1253;71835;-58
2024/01/07 04:10:37;;;;;;;2.10;1.30;;;;;;;-4.93;100.00;100332.42;104837;1257;60592;-57
2024/01/07 04:13:05;;;;;;;2.50;1.60;;;;;;;-4.94;100.00;100336.96;105477;1254;60442;-58
2024/01/07 04:15:32;;;;;;;2.00;1.20;;;;;;;-4.95;100.00;100343.25;104849;1257;72688;-56
2024/01/07 04:18:04;;;;;;;3.60;1.10;;;;;;;-5.03;100.00;100340.44;104938;1254;66059;-56
2024/01/07 04:20:32;;;;;;;4.50;1.30;;;;;;;-5.07;100.00;100347.51;104908;1253;71438;-56
2024/01/07 04:22:59;;;;;;;2.40;1.70;;;;;;;-5.09;100.00;100348.69;104934;1253;60432;-56
2024/01/07 04:25:26;;;;;;;3.50;2.00;;;;;;;-5.15;100.00;100358.35;105341;1253;62157;-57
2024/01/07 04:27:53;;;;;;;3.10;1.20;;;;;;;-5.21;100.00;100351.91;104865;1254;71274;-57
2024/01/07 04:30:21;;;;;;;5.80;1.70;;;;;;;-5.26;100.00;100353.52;105470;1253;65769;-57
2024/01/07 04:32:48;;;;;;;3.80;1.50;;;;;;;-5.29;100.00;100357.85;104860;1256;73175;-57
2024/01/07 04:35:16;;;;;;;5.60;1.40;;;;;;;-5.26;100.00;100363.83;104837;1253;61583;-56
2024/01/07 04:37:43;;;;;;;4.70;1.50;;;;;;;-5.22;100.00;100370.41;104933;1253;60554;-56
2024/01/07 04:40:11;;;;;;;2.70;1.40;;;;;;;-5.19;100.00;100367.52;104764;1258;72641;-57
2024/01/07 04:42:38;;;;;;;3.00;1.70;;;;;;;-5.20;100.00;100362.08;105357;1253;66920;-57
2024/01/07 04:45:06;;;;;;;5.30;1.70;;;;;;;-5.22;100.00;100356.41;104837;1253;71461;-57
2024/01/07 04:47:34;;;;;;;3.20;1.50;;;;;;;-5.31;100.00;100360.22;104694;1257;60601;-57
2024/01/07 04:50:02;;;;;;;2.50;1.20;;;;;;;-5.41;100.00;100356.11;104778;1253;61632;-56
2024/01/07 04:52:29;;;;;;;2.30;1.90;;;;;;;-5.48;100.00;100355.58;105511;1256;74435;-57
2024/01/07 04:54:56;;;;;;;3.10;1.80;;;;;;;-5.52;100.00;100360.55;104869;1256;66913;-57
2024/01/07 04:57:24;;;;;;;3.10;1.10;;;;;;;-5.59;100.00;100355.84;104815;1257;71415;-57
2024/01/07 04:59:52;;;;;;;2.00;1.00;;;;;;;-5.69;100.00;100356.79;105040;1253;61651;-57
2024/01/07 05:02:20;;;;;;;1.80;1.30;;;;;;;-5.76;100.00;100353.10;105853;1253;60561;-57
2024/01/07 05:04:47;;;;;;;1.60;1.00;;;;;;;-5.76;100.00;100348.04;105212;1257;74708;-57
2024/01/07 05:07:15;;;;;;;3.00;1.10;;;;;;;-5.73;100.00;100358.10;105126;1253;65813;-56
2024/01/07 05:09:42;;;;;;;6.80;2.00;;;;;;;-5.69;100.00;100358.54;105545;1256;72850;-56
2024/01/07 05:12:10;;;;;;;3.00;1.30;;;;;;;-5.70;100.00;100360.60;106150;1253;60467;-56
2024/01/07 05:14:37;;;;;;;3.60;1.10;;;;;;;-5.78;100.00;100361.09;104726;1252;60404;-56
2024/01/07 05:17:05;;;;;;;2.00;1.00;;;;;;;-5.86;100.00;100364.91;104888;1257;73972;-57
2024/01/07 05:19:32;;;;;;;4.40;1.50;;;;;;;-5.90;100.00;100367.63;104923;1253;66926;-57
2024/01/07 05:22:00;;;;;;;3.70;1.30;;;;;;;-5.91;100.00;100371.80;104953;1253;71174;-56
2024/01/07 05:24:28;;;;;;;3.30;1.30;;;;;;;-5.87;100.00;100375.56;106425;1256;60666;-57
2024/01/07 05:26:57;;;;;;;2.60;1.10;;;;;;;-5.81;100.00;100374.66;105290;1253;60851;-57
2024/01/07 05:29:25;;;;;;;2.60;1.10;;;;;;;-5.75;100.00;100383.02;104936;1257;74345;-56
2024/01/07 05:31:52;;;;;;;2.90;1.50;;;;;;;-5.68;100.00;100385.48;105006;1257;67628;-53
2024/01/07 05:34:19;;;;;;;2.50;1.30;;;;;;;-5.64;100.00;100381.58;105101;1253;72717;-57
2024/01/07 05:36:47;;;;;;;2.20;1.00;;;;;;;-5.66;100.00;100381.54;108933;1253;58814;-57
2024/01/07 05:39:14;;;;;;;2.40;1.00;;;;;;;-5.67;100.00;100381.66;109020;1253;58788;-57
2024/01/07 05:41:42;;;;;;;1.90;1.10;;;;;;;-5.68;100.00;100382.86;107878;1256;74764;-56
2024/01/07 05:44:09;;;;;;;3.20;1.20;;;;;;;-5.72;100.00;100388.20;105128;1254;66775;-57
2024/01/07 05:46:39;;;;;;;2.40;1.00;;;;;;;-5.74;100.00;100388.84;104856;1253;71414;-58
2024/01/07 05:49:07;;;;;;;2.40;0.90;;;;;;;-5.80;100.00;100381.86;104843;1256;60470;-57
2024/01/07 05:51:39;;;;;;;2.60;1.10;;;;;;;-5.86;100.00;100375.23;108983;1253;58813;-58
2024/01/07 05:54:07;;;;;;;4.80;1.20;;;;;;;-5.91;100.00;100372.16;109051;1252;73915;-58
2024/01/07 05:56:39;;;;;;;3.20;1.20;;;;;;;-5.94;100.00;100365.77;107033;1257;65720;-57
2024/01/07 05:59:07;;;;;;;1.80;1.10;;;;;;;-5.97;100.00;100379.16;105940;1257;72718;-57
2024/01/07 06:01:35;;;;;;;3.60;1.00;;;;;;;-6.00;100.00;100376.25;104970;1253;62187;-57
2024/01/07 06:04:02;;;;;;;2.80;1.40;;;;;;;-6.03;100.00;100381.59;107086;1254;60518;-57
2024/01/07 06:06:30;;;;;;;2.80;1.00;;;;;;;-6.02;100.00;100382.85;104590;1253;409365;-57
2024/01/07 06:09:36;;;;;;;1.60;0.90;;;;;;;-5.93;100.00;100452.13;101880;1291;600335;-58
2024/01/07 06:12:04;;;;;;;3.80;1.00;;;;;;;-5.90;100.00;100445.60;104170;1268;59277;-57
2024/01/07 06:14:31;;;;;;;3.70;1.60;;;;;;;-5.92;100.00;100437.30;104048;1271;59324;-57
2024/01/07 06:16:58;;;;;;;2.10;0.90;;;;;;;-5.96;100.00;100431.43;103920;1271;72813;-56
2024/01/07 06:19:26;;;;;;;2.40;1.00;;;;;;;-6.01;100.00;100426.21;104015;1268;66184;-58
2024/01/07 06:21:53;;;;;;;2.30;1.10;;;;;;;-6.13;100.00;100420.81;104255;1266;71813;-56
2024/01/07 06:24:21;;;;;;;2.00;1.10;;;;;;;-6.23;100.00;100413.86;104528;1260;174058;-56
2024/01/07 06:26:48;;;;;;;2.20;1.00;;;;;;;-6.34;100.00;100413.20;104690;1262;59253;-58
2024/01/07 06:29:15;;;;;;;1.10;0.60;;;;;;;-6.40;100.00;100411.63;104901;1260;73193;-57
2024/01/07 06:31:45;;;;;;;1.90;1.00;;;;;;;-6.43;100.00;100411.50;104609;1260;67277;-57
2024/01/07 06:34:13;;;;;;;2.10;0.80;;;;;;;-6.43;100.00;100416.59;105072;1260;72760;-57
2024/01/07 06:36:41;;;;;;;1.50;0.80;;;;;;;-6.37;100.00;100413.80;105896;1257;60438;-57
2024/01/07 06:39:09;;;;;;;2.10;1.20;;;;;;;-6.27;100.00;100417.93;104713;1251;60045;-57
2024/01/07 06:41:36;;;;;;;2.40;1.00;;;;;;;-6.19;100.00;100420.80;104787;1252;71581;-57
2024/01/07 06:44:04;;;;;;;2.20;0.90;;;;;;;-6.11;100.00;100428.54;104951;1259;66793;-57
2024/01/07 06:46:31;;;;;;;6.90;0.90;;;;;;;-6.03;100.00;100423.71;104883;1257;73472;-57
2024/01/07 06:48:59;;;;;;;3.50;0.70;;;;;;;-5.96;100.00;100425.66;104932;1256;61197;-56
2024/01/07 06:51:26;;;;;;;5.60;0.90;;;;;;;-5.91;100.00;100422.14;104960;1256;59821;-57
2024/01/07 06:53:53;;;;;;;3.10;1.00;;;;;;;-5.87;100.00;100425.38;104837;1251;70611;-57
2024/01/07 06:56:21;;;;;;;1.80;0.80;;;;;;;-5.88;100.00;100426.08;105040;1257;65686;-58
2024/01/07 06:58:50;;;;;;;1.80;0.80;;;;;;;-5.86;100.00;100429.92;104831;1254;73129;-56
2024/01/07 07:01:23;;;;;;;3.70;0.80;;;;;;;-5.84;100.00;100429.64;105138;1256;59687;-55
2024/01/07 07:03:51;;;;;;;3.20;1.10;;;;;;;-5.78;100.00;100429.82;105181;1260;61164;-56
2024/01/07 07:06:19;;;;;;;7.20;1.10;;;;;;;-5.70;100.00;100429.52;104720;1256;71417;-56
2024/01/07 07:08:46;;;;;;;4.20;1.00;;;;;;;-5.63;100.00;100428.48;104916;1259;67088;-55
2024/01/07 07:11:13;;;;;;;2.10;0.80;;;;;;;-5.63;100.00;100427.24;104480;1253;71485;-56
2024/01/07 07:13:41;;;;;;;5.60;1.00;;;;;;;-5.65;100.00;100431.73;104841;1259;63114;-57
2024/01/07 07:16:08;;;;;;;2.20;1.10;;;;;;;-5.71;100.00;100431.91;104852;1260;59762;-57
2024/01/07 07:18:36;;;;;;;2.40;1.00;;;;;;;-5.73;100.00;100434.16;104894;1259;73097;-57
2024/01/07 07:21:03;;;;;;;1.60;0.80;;;;;;;-5.75;100.00;100434.80;105451;1259;69449;-58
2024/01/07 07:23:31;;;;;;;3.60;0.90;;;;;;;-5.76;100.00;100436.33;104921;1252;73194;-56
2024/01/07 07:25:58;;;;;;;1.40;0.80;;;;;;;-5.88;100.00;100437.06;104937;1259;61320;-56
2024/01/07 07:28:26;;;;;;;5.10;0.80;;;;;;;-5.95;100.00;100436.01;104842;1254;60466;-58
2024/01/07 07:30:53;;;;;;;2.20;0.80;;;;;;;-6.00;100.00;100437.95;104812;1259;73086;-57
2024/01/07 07:33:20;;;;;;;3.40;1.00;;;;;;;-6.02;100.00;100439.46;104775;1257;66803;-57
2024/01/07 07:35:48;;;;;;;3.50;0.90;;;;;;;-6.03;100.00;100446.06;104865;1259;71452;-57
2024/01/07 07:38:15;;;;;;;3.50;1.10;;;;;;;-6.00;100.00;100439.68;105193;1256;59648;-58
2024/01/07 07:40:44;;;;;;;4.60;1.00;;;;;;;-6.01;100.00;100434.58;104850;1267;59708;-58
2024/01/07 07:43:12;;;;;;;3.10;1.20;;;;;;;-6.03;100.00;100435.23;104926;1259;72045;-57
2024/01/07 07:45:39;;;;;;;3.50;0.80;;;;;;;-6.01;100.00;100431.97;104937;1257;67340;-57
2024/01/07 07:48:07;;;;;;;5.00;1.60;;;;;;;-5.99;100.00;100435.39;104711;1255;72755;-56
2024/01/07 07:50:34;;;;;;;2.70;1.30;;;;;;;-5.99;100.00;100438.52;105128;1254;61009;-57
2024/01/07 07:53:02;;;;;;;3.20;1.50;;;;;;;-6.00;100.00;100437.94;104797;1258;59668;-57
2024/01/07 07:55:30;;;;;;;1.50;0.90;;;;;;;-6.03;100.00;100437.14;104668;1260;73123;-57
2024/01/07 07:57:59;;;;;;;1.60;0.80;;;;;;;-6.01;100.00;100433.54;104739;1259;65963;-58
2024/01/07 08:00:26;;;;;;;5.80;1.20;;;;;;;-5.98;100.00;100438.02;104893;1258;72734;-57
2024/01/07 08:02:54;;;;;;;3.90;0.80;;;;;;;-6.02;100.00;100439.30;104935;1253;62818;-58
2024/01/07 08:05:21;;;;;;;3.30;0.90;;;;;;;-6.02;100.00;100435.78;104713;1253;60131;-57
2024/01/07 08:07:49;;;;;;;2.90;0.90;;;;;;;-5.96;100.00;100439.64;104787;1258;71926;-57
2024/01/07 08:10:16;;;;;;;4.80;1.20;;;;;;;-5.92;100.00;100442.70;104841;1255;65388;-58
2024/01/07 08:12:44;;;;;;;3.60;1.20;;;;;;;-5.87;100.00;100442.34;105114;1257;71108;-57
2024/01/07 08:15:11;;;;;;;7.10;2.00;;;;;;;-5.84;100.00;100436.97;104556;1257;59840;-56
2024/01/07 08:17:38;;;;;;;3.20;1.20;;;;;;;-5.83;100.00;100433.52;104744;1258;60003;-57
2024/01/07 08:20:06;;;;;;;6.50;1.90;;;;;;;-5.83;100.00;100435.61;104776;1254;71890;-57
2024/01/07 08:22:34;;;;;;;4.40;1.50;;;;;;;-5.90;100.00;100433.51;104601;1257;66974;-57
2024/01/07 08:25:02;;;;;;;5.60;1.40;;;;;;;-6.03;100.00;100433.50;104717;1254;73197;-57
2024/01/07 08:27:29;;;;;;;5.90;2.00;;;;;;;-6.14;100.00;100428.48;104822;1254;60899;-57
2024/01/07 08:29:57;;;;;;;2.50;1.20;;;;;;;-6.16;100.00;100433.81;108136;1253;58491;-57
2024/01/07 08:32:25;;;;;;;2.10;0.90;;;;;;;-6.15;100.00;100432.27;104817;1259;73112;-58
2024/01/07 08:34:52;;;;;;;3.30;1.30;;;;;;;-6.19;100.00;100434.60;104821;1258;66752;-57
2024/01/07 08:37:19;;;;;;;3.30;1.80;;;;;;;-6.15;100.00;100439.81;108970;1254;71117;-58
2024/01/07 08:39:47;;;;;;;7.50;1.40;;;;;;;-6.09;100.00;100435.95;108301;1258;60881;-57
2024/01/07 08:42:14;;;;;;;3.50;1.00;;;;;;;-6.04;100.00;100440.45;108955;1253;59331;-57
2024/01/07 08:44:42;;;;;;;4.70;1.30;;;;;;;-6.10;100.00;100437.50;106320;1258;73130;-57
2024/01/07 08:47:09;;;;;;;2.90;1.10;;;;;;;-6.15;100.00;100434.05;104667;1257;67355;-57
2024/01/07 08:49:38;;;;;;;2.90;1.00;;;;;;;-6.20;100.00;100434.92;104668;1261;71893;-57
2024/01/07 08:52:05;;;;;;;5.20;1.10;;;;;;;-6.27;100.00;100432.63;109002;1254;61450;-58
2024/01/07 08:54:33;;;;;;;2.80;0.90;;;;;;;-6.28;100.00;100428.92;106382;1259;60466;-57
2024/01/07 08:57:00;;;;;;;2.40;1.00;;;;;;;-6.27;100.00;100420.41;108968;1259;73508;-58
2024/01/07 08:59:27;;;;;;;1.80;0.80;;;;;;;-6.27;100.00;100420.04;108962;1254;65643;-58
2024/01/07 09:01:55;;;;;;;2.70;1.00;;;;;;;-6.22;100.00;100416.52;107172;1253;72692;-58
2024/01/07 09:04:23;;;;;;;2.50;1.10;;;;;;;-6.17;100.00;100412.31;106659;1259;60827;-57
2024/01/07 09:06:51;;;;;;;5.40;1.20;;;;;;;-6.18;100.00;100414.38;107010;1254;59339;-57
2024/01/07 09:09:18;;;;;;;5.00;1.30;;;;;;;-6.19;100.00;100419.24;104896;1260;74914;-57
2024/01/07 09:11:46;;;;;;;7.70;2.50;;;;;;;-6.19;100.00;100420.80;105046;1257;65845;-57
2024/01/07 09:14:14;;;;;;;4.10;1.10;;;;;;;-6.22;100.00;100420.71;104839;1254;73029;-57
2024/01/07 09:16:42;;;;;;;3.20;1.10;;;;;;;-6.27;100.00;100413.05;105227;1254;59813;-58
2024/01/07 09:19:10;;;;;;;4.10;1.10;;;;;;;-6.30;100.00;100407.91;106420;1257;59518;-57
2024/01/07 09:21:41;;;;;;;2.50;1.10;;;;;;;-6.36;100.00;100412.96;109083;1252;71781;-58
2024/01/07 09:24:09;;;;;;;6.00;1.40;;;;;;;-6.37;100.00;100413.79;105699;1254;66114;-57
2024/01/07 09:26:37;;;;;;;7.00;1.00;;;;;;;-6.34;100.00;100410.92;104899;1254;71583;-56
2024/01/07 09:29:04;;;;;;;3.40;1.00;;;;;;;-6.29;100.00;100411.08;104782;1253;59766;-54
2024/01/07 09:31:32;;;;;;;5.00;1.30;;;;;;;-6.22;100.00;100410.05;104797;1257;60078;-55
2024/01/07 09:33:59;;;;;;;5.50;1.30;;;;;;;-6.14;100.00;100407.70;104722;1257;73077;-55
2024/01/07 09:36:27;;;;;;;8.30;3.30;;;;;;;-6.16;100.00;100405.89;104827;1253;65790;-54
2024/01/07 09:38:57;;;;;;;7.10;1.40;;;;;;;-6.15;100.00;100409.74;105054;1260;72412;-57
2024/01/07 09:41:24;;;;;;;3.00;1.40;;;;;;;-6.10;100.00;100407.27;104737;1259;60851;-56
2024/01/07 09:43:53;;;;;;;7.40;2.40;;;;;;;-6.03;100.00;100406.41;104702;1254;62235;-55
2024/01/07 09:46:20;;;;;;;5.40;1.90;;;;;;;-5.95;100.00;100400.16;104806;1254;76052;-57
2024/01/07 09:48:48;;;;;;;5.60;1.60;;;;;;;-5.95;100.00;100392.30;105062;1254;67243;-56
2024/01/07 09:51:15;;;;;;;7.30;1.40;;;;;;;-5.99;100.00;100394.46;104765;1254;72850;-56
2024/01/07 09:53:43;;;;;;;8.10;1.80;;;;;;;-5.95;100.00;100399.13;104660;1258;60977;-57
2024/01/07 09:56:34;;;;;;;5.80;1.40;;;;;;;-5.96;100.00;100404.86;104740;1254;60478;-56
2024/01/07 09:59:01;;;;;;;8.20;1.30;;;;;;;-6.06;100.00;100408.25;104702;1260;72163;-57
2024/01/07 10:01:29;;;;;;;6.60;1.40;;;;;;;-6.23;100.00;100400.26;104870;1254;65287;-56
2024/01/07 10:03:56;;;;;;;2.90;1.10;;;;;;;-6.34;100.00;100404.29;106602;1258;72761;-56
2024/01/07 10:06:25;;;;;;;4.60;1.80;;;;;;;-6.37;100.00;100397.21;104799;1254;59756;-57
2024/01/07 10:08:52;;;;;;;3.70;1.20;;;;;;;-6.41;100.00;100393.09;104773;1254;60113;-58
2024/01/07 10:11:21;;;;;;;3.90;1.00;;;;;;;-6.45;100.00;100395.55;104575;1254;71851;-57
2024/01/07 10:13:49;;;;;;;5.50;1.40;;;;;;;-6.44;100.00;100389.85;105129;1254;65170;-58
2024/01/07 10:16:17;;;;;;;8.00;1.20;;;;;;;-6.45;100.00;100393.48;104818;1257;73052;-57
2024/01/07 10:18:44;;;;;;;3.70;1.20;;;;;;;-6.53;100.00;100386.63;104912;1257;60491;-56
2024/01/07 10:21:12;;;;;;;4.70;1.80;;;;;;;-6.54;100.00;100387.27;104651;1254;60540;-56
2024/01/07 10:23:39;;;;;;;4.20;1.30;;;;;;;-6.50;100.00;100383.21;104815;1259;72606;-56
2024/01/07 10:26:06;;;;;;;2.70;1.10;;;;;;;-6.42;100.00;100375.59;104713;1253;65549;-56
2024/01/07 10:28:49;;;;;;;4.40;2.20;;;;;;;-6.33;100.00;100376.05;104808;1255;70485;-55
2024/01/07 10:31:16;;;;;;;6.20;1.40;;;;;;;-6.26;100.00;100382.85;104779;1260;60925;-56
2024/01/07 10:33:44;;;;;;;4.50;1.30;;;;;;;-6.30;100.00;100382.91;105524;1259;60419;-57
2024/01/07 10:36:12;;;;;;;6.40;1.80;;;;;;;-6.47;100.00;100378.05;104900;1252;73010;-56
2024/01/07 10:38:40;;;;;;;4.40;1.20;;;;;;;-6.64;100.00;100373.19;105479;1259;65807;-56
2024/01/07 10:41:11;;;;;;;5.30;1.20;;;;;;;-6.69;100.00;100372.16;107836;1254;70494;-55
2024/01/07 10:43:40;;;;;;;3.00;1.30;;;;;;;-6.75;100.00;100367.61;105086;1253;60747;-56
2024/01/07 10:46:07;;;;;;;3.70;1.30;;;;;;;-6.71;100.00;100365.45;105124;1255;60606;-56
2024/01/07 10:48:37;;;;;;;3.80;1.30;;;;;;;-6.64;100.00;100372.31;104845;1254;72679;-56
2024/01/07 10:51:05;;;;;;;6.00;1.50;;;;;;;-6.61;100.00;100371.35;105803;1254;66046;-56
2024/01/07 10:53:34;;;;;;;4.30;2.10;;;;;;;-6.61;100.00;100369.61;104714;1254;72675;-56
2024/01/07 10:56:05;;;;;;;3.10;1.40;;;;;;;-6.67;100.00;100366.63;109073;1253;61397;-56
2024/01/07 10:58:35;;;;;;;6.50;2.50;;;;;;;-6.69;100.00;100367.45;104764;1254;60489;-56
2024/01/07 11:01:04;;;;;;;3.90;1.70;;;;;;;-6.66;100.00;100360.23;104687;1253;74429;-56
2024/01/07 11:04:10;;;;;;;6.00;1.60;;;;;;;-6.64;100.00;100353.29;104897;1254;66208;-56
2024/01/07 11:06:52;;;;;;;5.50;1.90;;;;;;;-6.65;100.00;100364.78;106706;1253;73152;-56
2024/01/07 11:09:24;;;;;;;4.10;1.70;;;;;;;-6.65;100.00;100361.48;104601;1257;61518;-56
2024/01/07 11:11:51;;;;;;;5.90;2.10;;;;;;;-6.64;100.00;100363.77;104783;1261;60603;-55
2024/01/07 11:14:35;;;;;;;6.60;1.90;;;;;;;-6.63;100.00;100357.86;104661;1253;74075;-55